createdAt,value
2024-04-17T00:02:27.772Z,98606.60
2024-04-17T00:05:59.724Z,98606.80
2024-04-17T00:08:46.903Z,98600.40
2024-04-17T00:12:24.581Z,98597.20
2024-04-17T00:15:47.572Z,98590.00
2024-04-17T00:18:48.650Z,98584.60
2024-04-17T00:21:31.910Z,98579.40
2024-04-17T00:24:18.806Z,98575.00
2024-04-17T00:27:35.774Z,98570.20
2024-04-17T00:31:23.674Z,98562.80
2024-04-17T00:34:02.990Z,98551.40
2024-04-17T00:36:39.341Z,98546.00
2024-04-17T00:39:07.460Z,98555.60
2024-04-17T00:41:35.758Z,98552.20
2024-04-17T00:44:03.914Z,98540.80
2024-04-17T00:46:38.220Z,98539.80
2024-04-17T00:49:14.239Z,98521.80
2024-04-17T00:51:48.313Z,98523.00
2024-04-17T00:54:17.361Z,98522.80
2024-04-17T00:56:51.558Z,98520.20
2024-04-17T00:59:26.312Z,98513.80
2024-04-17T01:01:56.681Z,98506.40
2024-04-17T01:04:29.358Z,98510.20
2024-04-17T01:06:57.611Z,98512.20
2024-04-17T01:09:25.866Z,98517.40
2024-04-17T01:11:54.272Z,98518.80
2024-04-17T01:15:27.397Z,98517.40
2024-04-17T01:18:07.317Z,98524.80
2024-04-17T01:20:41.144Z,98528.60
2024-04-17T01:23:09.207Z,98526.40
2024-04-17T01:25:37.390Z,98531.40
2024-04-17T01:28:06.379Z,98528.00
2024-04-17T01:30:42.610Z,98522.00
2024-04-17T01:33:10.832Z,98526.00
2024-04-17T01:35:54.611Z,98527.80
2024-04-17T01:38:34.035Z,98531.20
2024-04-17T01:41:27.395Z,98544.40
2024-04-17T01:44:17.678Z,98547.20
2024-04-17T01:47:16.917Z,98544.60
2024-04-17T01:49:47.353Z,98545.80
2024-04-17T01:52:24.412Z,98541.80
2024-04-17T01:55:07.713Z,98537.40
2024-04-17T01:57:40.972Z,98533.40
2024-04-17T02:00:40.983Z,98528.60
2024-04-17T02:03:17.662Z,98534.00
2024-04-17T02:06:01.954Z,98526.20
2024-04-17T02:08:32.987Z,98518.00
2024-04-17T02:11:14.831Z,98521.20
2024-04-17T02:13:45.249Z,98517.20
2024-04-17T02:16:26.795Z,98518.60
2024-04-17T02:18:57.986Z,98510.20
2024-04-17T02:21:32.295Z,98503.80
2024-04-17T02:24:36.228Z,98483.80
2024-04-17T02:27:13.209Z,98474.20
2024-04-17T02:29:43.029Z,98460.60
2024-04-17T02:32:10.966Z,98458.80
2024-04-17T02:34:48.245Z,98477.40
2024-04-17T02:37:19.552Z,98472.40
2024-04-17T02:39:47.514Z,98476.00
2024-04-17T02:42:18.217Z,98474.80
2024-04-17T02:44:51.552Z,98480.60
2024-04-17T02:47:22.753Z,98481.80
2024-04-17T02:49:54.013Z,98481.40
2024-04-17T02:52:25.268Z,98472.80
2024-04-17T02:55:44.263Z,98453.00
2024-04-17T02:58:35.716Z,98449.00
2024-04-17T03:01:46.290Z,98447.80
2024-04-17T03:04:57.868Z,98451.60
2024-04-17T03:08:19.638Z,98447.00
2024-04-17T03:11:19.112Z,98425.40
2024-04-17T03:14:59.577Z,98428.00
2024-04-17T03:17:52.294Z,98440.80
2024-04-17T03:21:24.305Z,98452.00
2024-04-17T03:24:12.741Z,98463.40
2024-04-17T03:26:43.991Z,98465.00
2024-04-17T03:29:12.274Z,98460.40
2024-04-17T03:31:45.514Z,98460.60
2024-04-17T03:34:13.735Z,98446.40
2024-04-17T03:36:41.980Z,98449.60
2024-04-17T03:39:10.288Z,98444.80
2024-04-17T03:41:38.829Z,98441.80
2024-04-17T03:44:07.058Z,98439.80
2024-04-17T03:46:35.428Z,98437.00
2024-04-17T03:49:03.852Z,98435.60
2024-04-17T03:51:31.992Z,98431.60
2024-04-17T03:54:00.016Z,98441.20
2024-04-17T03:56:28.139Z,98437.60
2024-04-17T03:58:58.793Z,98425.40
2024-04-17T04:01:27.534Z,98423.40
2024-04-17T04:03:58.995Z,98423.60
2024-04-17T04:06:30.438Z,98422.00
2024-04-17T04:08:58.631Z,98418.60
2024-04-17T04:11:37.272Z,98421.20
2024-04-17T04:14:08.558Z,98436.40
2024-04-17T04:16:40.493Z,98437.80
2024-04-17T04:19:08.778Z,98443.20
2024-04-17T04:21:39.827Z,98447.80
2024-04-17T04:24:10.140Z,98453.20
2024-04-17T04:26:38.615Z,98460.80
2024-04-17T04:29:09.825Z,98455.20
2024-04-17T04:31:38.307Z,98446.40
2024-04-17T04:34:06.401Z,98440.40
2024-04-17T04:36:42.663Z,98439.00
2024-04-17T04:39:13.115Z,98441.60
2024-04-17T04:41:43.998Z,98449.20
2024-04-17T04:44:12.204Z,98442.60
2024-04-17T04:46:49.613Z,98443.00
2024-04-17T04:49:17.850Z,98449.40
2024-04-17T04:51:48.963Z,98450.00
2024-04-17T04:54:30.478Z,98458.00
2024-04-17T04:56:58.561Z,98458.20
2024-04-17T04:59:27.382Z,98460.80
2024-04-17T05:01:55.681Z,98458.40
2024-04-17T05:04:24.043Z,98457.60
2024-04-17T05:06:55.558Z,98456.60
2024-04-17T05:09:28.041Z,98460.80
2024-04-17T05:11:58.868Z,98468.20
2024-04-17T05:14:35.317Z,98465.40
2024-04-17T05:17:06.183Z,98472.80
2024-04-17T05:19:34.301Z,98472.80
2024-04-17T05:22:02.470Z,98468.80
2024-04-17T05:24:30.818Z,98462.20
2024-04-17T05:27:21.953Z,98464.20
2024-04-17T05:29:50.126Z,98472.40
2024-04-17T05:32:21.170Z,98477.20
2024-04-17T05:34:49.306Z,98479.00
2024-04-17T05:37:20.321Z,98481.00
2024-04-17T05:39:51.438Z,98490.40
2024-04-17T05:42:19.938Z,98496.20
2024-04-17T05:44:48.023Z,98499.40
2024-04-17T05:47:29.121Z,98504.60
2024-04-17T05:50:01.428Z,98500.00
2024-04-17T05:52:35.510Z,98494.60
2024-04-17T05:55:09.304Z,98501.80
2024-04-17T05:58:00.275Z,98503.00
2024-04-17T06:00:30.845Z,98500.80
2024-04-17T06:03:02.799Z,98511.00
2024-04-17T06:05:31.599Z,98516.20
2024-04-17T06:07:59.894Z,98507.60
2024-04-17T06:10:28.508Z,98508.60
2024-04-17T06:12:56.567Z,98495.60
2024-04-17T06:15:24.835Z,98487.60
2024-04-17T06:17:57.201Z,98485.40
2024-04-17T06:20:29.538Z,98495.80
2024-04-17T06:23:03.390Z,98507.80
2024-04-17T06:25:31.782Z,98495.20
2024-04-17T06:28:00.374Z,98499.60
2024-04-17T06:30:30.320Z,98508.60
2024-04-17T06:33:02.049Z,98503.00
2024-04-17T06:35:39.239Z,98494.80
2024-04-17T06:38:07.692Z,98491.20
2024-04-17T06:40:36.457Z,98491.00
2024-04-17T06:43:08.061Z,98493.20
2024-04-17T06:45:36.127Z,98501.40
2024-04-17T06:48:05.975Z,98499.60
2024-04-17T06:50:34.936Z,98493.80
2024-04-17T06:53:05.511Z,98497.00
2024-04-17T06:55:33.905Z,98499.00
2024-04-17T06:58:31.886Z,98500.20
2024-04-17T07:01:12.293Z,98494.20
2024-04-17T07:03:43.576Z,98492.20
2024-04-17T07:06:12.844Z,98495.60
2024-04-17T07:08:44.175Z,98494.60
2024-04-17T07:11:15.767Z,98491.00
2024-04-17T07:13:47.137Z,98486.60
2024-04-17T07:16:22.957Z,98487.80
2024-04-17T07:18:54.495Z,98481.60
2024-04-17T07:21:26.124Z,98479.60
2024-04-17T07:23:57.690Z,98472.40
2024-04-17T07:26:26.302Z,98467.60
2024-04-17T07:29:02.437Z,98474.20
2024-04-17T07:31:35.782Z,98472.60
2024-04-17T07:34:04.225Z,98469.00
2024-04-17T07:36:32.560Z,98471.80
2024-04-17T07:39:00.753Z,98470.00
2024-04-17T07:41:32.385Z,98475.40
2024-04-17T07:44:10.214Z,98475.60
2024-04-17T07:46:49.320Z,98478.40
2024-04-17T07:49:22.777Z,98479.80
2024-04-17T07:51:56.735Z,98483.00
2024-04-17T07:54:31.039Z,98480.60
2024-04-17T07:57:12.168Z,98481.40
2024-04-17T07:59:46.291Z,98483.00
2024-04-17T08:02:22.501Z,98483.80
2024-04-17T08:04:59.125Z,98487.20
2024-04-17T08:07:35.599Z,98489.20
2024-04-17T08:10:07.247Z,98487.00
2024-04-17T08:12:41.525Z,98493.80
2024-04-17T08:15:22.560Z,98499.80
2024-04-17T08:17:58.881Z,98498.60
2024-04-17T08:20:33.258Z,98493.80
2024-04-17T08:23:12.120Z,98494.40
2024-04-17T08:25:43.123Z,98491.20
2024-04-17T08:28:17.945Z,98489.40
2024-04-17T08:30:46.564Z,98490.20
2024-04-17T08:33:15.383Z,98493.20
2024-04-17T08:35:43.666Z,98489.60
2024-04-17T08:38:27.619Z,98486.60
2024-04-17T08:40:58.564Z,98482.60
2024-04-17T08:43:28.542Z,98486.00
2024-04-17T08:46:08.165Z,98478.60
2024-04-17T08:48:39.149Z,98472.00
2024-04-17T08:51:20.045Z,98470.20
2024-04-17T08:54:08.478Z,98470.60
2024-04-17T08:56:42.052Z,98474.80
2024-04-17T08:59:36.761Z,98483.80
2024-04-17T09:02:21.468Z,98488.40
2024-04-17T09:04:53.100Z,98488.20
2024-04-17T09:07:28.250Z,98495.60
2024-04-17T09:09:56.758Z,98494.60
2024-04-17T09:12:25.408Z,98500.80
2024-04-17T09:14:57.204Z,98502.20
2024-04-17T09:17:33.573Z,98501.60
2024-04-17T09:20:04.194Z,98498.20
2024-04-17T09:22:36.102Z,98500.40
2024-04-17T09:25:20.394Z,98505.60
2024-04-17T09:27:49.000Z,98500.80
2024-04-17T09:30:17.274Z,98504.80
2024-04-17T09:32:45.760Z,98507.60
2024-04-17T09:35:17.232Z,98513.00
2024-04-17T09:37:47.674Z,98517.00
2024-04-17T09:40:15.982Z,98520.40
2024-04-17T09:42:48.513Z,98516.80
2024-04-17T09:45:23.349Z,98516.40
2024-04-17T09:47:54.366Z,98516.20
2024-04-17T09:50:31.495Z,98511.20
2024-04-17T09:53:04.083Z,98514.00
2024-04-17T09:55:32.833Z,98517.40
2024-04-17T09:58:14.179Z,98518.40
2024-04-17T10:00:44.756Z,98514.00
2024-04-17T10:03:19.618Z,98514.20
2024-04-17T10:05:48.342Z,98514.00
2024-04-17T10:08:23.288Z,98518.80
2024-04-17T10:10:52.304Z,98528.60
2024-04-17T10:13:29.642Z,98535.00
2024-04-17T10:16:14.800Z,98532.80
2024-04-17T10:18:48.782Z,98522.60
2024-04-17T10:21:24.717Z,98514.60
2024-04-17T10:24:37.606Z,98507.00
2024-04-17T10:27:06.098Z,98499.40
2024-04-17T10:29:51.345Z,98488.80
2024-04-17T10:32:26.142Z,98483.80
2024-04-17T10:34:56.835Z,98481.20
2024-04-17T10:37:35.946Z,98479.60
2024-04-17T10:40:10.307Z,98479.00
2024-04-17T10:42:38.730Z,98476.60
2024-04-17T10:45:09.839Z,98471.00
2024-04-17T10:47:40.472Z,98465.00
2024-04-17T10:50:16.816Z,98459.20
2024-04-17T10:53:10.994Z,98456.80
2024-04-17T10:55:41.422Z,98457.20
2024-04-17T10:58:11.562Z,98449.60
2024-04-17T11:00:40.574Z,98452.00
2024-04-17T11:03:22.476Z,98459.60
2024-04-17T11:05:50.587Z,98454.60
2024-04-17T11:08:57.877Z,98446.60
2024-04-17T11:11:29.624Z,98436.40
2024-04-17T11:14:27.079Z,98434.60
2024-04-17T11:16:59.550Z,98446.80
2024-04-17T11:19:38.424Z,98448.80
2024-04-17T11:22:29.992Z,98447.20
2024-04-17T11:25:00.495Z,98457.60
2024-04-17T11:27:41.537Z,98460.00
2024-04-17T11:30:19.312Z,98461.20
2024-04-17T11:32:50.496Z,98461.80
2024-04-17T11:35:19.036Z,98461.40
2024-04-17T11:38:02.393Z,98462.20
2024-04-17T11:40:53.285Z,98456.40
2024-04-17T11:44:16.058Z,98460.20
2024-04-17T11:46:44.505Z,98456.40
2024-04-17T11:49:25.172Z,98440.40
2024-04-17T11:51:53.529Z,98450.00
2024-04-17T11:54:38.344Z,98452.80
2024-04-17T11:57:17.856Z,98457.40
2024-04-17T11:59:47.180Z,98453.60
2024-04-17T12:02:15.821Z,98456.00
2024-04-17T12:04:56.124Z,98451.80
2024-04-17T12:07:24.438Z,98458.00
2024-04-17T12:09:52.710Z,98466.00
2024-04-17T12:12:32.042Z,98469.00
2024-04-17T12:15:02.623Z,98464.40
2024-04-17T12:17:41.674Z,98465.20
2024-04-17T12:20:16.482Z,98471.80
2024-04-17T12:23:25.571Z,98475.80
2024-04-17T12:26:34.555Z,98486.00
2024-04-17T12:29:13.725Z,98481.20
2024-04-17T12:32:05.600Z,98479.00
2024-04-17T12:35:02.973Z,98484.20
2024-04-17T12:37:41.746Z,98479.80
2024-04-17T12:40:32.998Z,98477.80
2024-04-17T12:43:21.494Z,98478.20
2024-04-17T12:45:49.613Z,98468.60
2024-04-17T12:48:23.745Z,98458.20
2024-04-17T12:51:07.621Z,98460.60
2024-04-17T12:53:41.540Z,98447.20
2024-04-17T12:56:09.764Z,98451.00
2024-04-17T12:58:46.066Z,98455.00
2024-04-17T13:01:14.721Z,98452.20
2024-04-17T13:03:46.670Z,98438.80
2024-04-17T13:06:20.962Z,98428.40
2024-04-17T13:08:53.072Z,98431.00
2024-04-17T13:11:21.621Z,98438.40
2024-04-17T13:13:55.659Z,98441.00
2024-04-17T13:16:27.115Z,98436.20
2024-04-17T13:18:56.788Z,98439.80
2024-04-17T13:21:27.665Z,98447.00
2024-04-17T13:23:55.956Z,98444.20
2024-04-17T13:26:27.163Z,98456.00
2024-04-17T13:29:10.675Z,98461.80
2024-04-17T13:31:39.365Z,98451.80
2024-04-17T13:34:09.770Z,98448.00
2024-04-17T13:36:43.278Z,98442.80
2024-04-17T13:39:20.743Z,98439.40
2024-04-17T13:41:49.207Z,98438.60
2024-04-17T13:44:21.755Z,98438.00
2024-04-17T13:46:50.142Z,98433.60
2024-04-17T13:49:26.313Z,98430.40
2024-04-17T13:51:57.489Z,98440.60
2024-04-17T13:54:25.538Z,98459.20
2024-04-17T13:56:56.941Z,98469.40
2024-04-17T13:59:27.778Z,98483.00
2024-04-17T14:02:01.392Z,98484.00
2024-04-17T14:04:32.230Z,98496.80
2024-04-17T14:07:00.826Z,98513.40
2024-04-17T14:10:08.335Z,98529.60
2024-04-17T14:12:53.709Z,98523.40
2024-04-17T14:15:24.837Z,98512.80
2024-04-17T14:17:59.827Z,98514.40
2024-04-17T14:20:29.270Z,98509.60
2024-04-17T14:23:00.755Z,98514.80
2024-04-17T14:25:34.575Z,98502.40
2024-04-17T14:28:07.234Z,98485.40
2024-04-17T14:30:38.673Z,98481.60
2024-04-17T14:33:12.048Z,98490.00
2024-04-17T14:35:45.881Z,98498.00
2024-04-17T14:38:18.352Z,98512.20
2024-04-17T14:40:59.786Z,98522.40
2024-04-17T14:43:41.703Z,98514.60
2024-04-17T14:46:15.199Z,98521.60
2024-04-17T14:48:44.800Z,98537.40
2024-04-17T14:51:17.689Z,98545.00
2024-04-17T14:53:52.298Z,98550.80
2024-04-17T14:56:24.746Z,98550.00
2024-04-17T14:58:55.980Z,98552.40
2024-04-17T15:01:27.898Z,98544.40
2024-04-17T15:03:57.311Z,98545.60
2024-04-17T15:06:28.337Z,98531.60
2024-04-17T15:08:56.605Z,98523.60
2024-04-17T15:11:28.303Z,98539.60
2024-04-17T15:13:58.994Z,98531.40
2024-04-17T15:16:28.708Z,98530.40
2024-04-17T15:19:00.725Z,98524.40
2024-04-17T15:21:36.662Z,98536.20
2024-04-17T15:24:08.927Z,98515.00
2024-04-17T15:26:51.352Z,98515.00
2024-04-17T15:29:22.554Z,98517.80
2024-04-17T15:31:51.719Z,98521.00
2024-04-17T15:34:19.928Z,98515.80
2024-04-17T15:36:48.279Z,98510.20
2024-04-17T15:39:24.304Z,98506.20
2024-04-17T15:42:03.755Z,98496.20
2024-04-17T15:44:32.526Z,98492.20
2024-04-17T15:47:08.290Z,98484.80
2024-04-17T15:49:40.737Z,98476.20
2024-04-17T15:52:10.685Z,98477.80
2024-04-17T15:54:42.098Z,98485.60
2024-04-17T15:57:10.631Z,98491.00
2024-04-17T15:59:43.837Z,98504.80
2024-04-17T16:02:12.126Z,98506.60
2024-04-17T16:04:43.935Z,98501.20
2024-04-17T16:07:18.266Z,98509.20
2024-04-17T16:09:51.982Z,98511.40
2024-04-17T16:12:20.632Z,98519.40
2024-04-17T16:14:54.707Z,98529.00
2024-04-17T16:17:32.260Z,98537.40
2024-04-17T16:20:06.868Z,98548.00
2024-04-17T16:23:23.340Z,98552.40
2024-04-17T16:26:22.415Z,98538.20
2024-04-17T16:29:02.162Z,98529.20
2024-04-17T16:31:32.801Z,98544.00
2024-04-17T16:34:04.089Z,98556.80
2024-04-17T16:36:58.874Z,98564.20
2024-04-17T16:39:31.534Z,98561.20
2024-04-17T16:42:02.632Z,98549.20
2024-04-17T16:44:46.107Z,98534.40
2024-04-17T16:47:37.016Z,98517.00
2024-04-17T16:50:08.671Z,98510.80
2024-04-17T16:52:51.173Z,98519.20
2024-04-17T16:55:25.935Z,98525.00
2024-04-17T16:58:02.468Z,98537.40
2024-04-17T17:01:00.460Z,98541.40
2024-04-17T17:03:29.519Z,98539.20
2024-04-17T17:06:02.732Z,98544.80
2024-04-17T17:08:50.477Z,98551.80
2024-04-17T17:11:36.290Z,98552.40
2024-04-17T17:14:46.424Z,98556.00
2024-04-17T17:17:20.372Z,98552.60
2024-04-17T17:20:08.934Z,98543.00
2024-04-17T17:22:41.683Z,98541.80
2024-04-17T17:25:18.908Z,98543.80
2024-04-17T17:27:53.404Z,98546.00
2024-04-17T17:31:10.288Z,98556.80
2024-04-17T17:33:51.639Z,98564.60
2024-04-17T17:36:44.138Z,98553.20
2024-04-17T17:39:28.257Z,98575.00
2024-04-17T17:42:07.847Z,98596.80
2024-04-17T17:44:41.686Z,98598.00
2024-04-17T17:47:22.938Z,98602.40
2024-04-17T17:50:13.327Z,98609.60
2024-04-17T17:52:45.081Z,98610.00
2024-04-17T17:55:17.771Z,98604.20
2024-04-17T17:58:17.247Z,98596.80
2024-04-17T18:00:55.483Z,98592.00
2024-04-17T18:03:41.477Z,98583.00
2024-04-17T18:06:12.933Z,98561.80
2024-04-17T18:08:48.518Z,98564.00
2024-04-17T18:11:20.965Z,98568.20
2024-04-17T18:13:51.892Z,98573.20
2024-04-17T18:16:29.149Z,98577.40
2024-04-17T18:19:05.883Z,98583.00
2024-04-17T18:21:45.983Z,98586.20
2024-04-17T18:24:18.917Z,98582.40
2024-04-17T18:27:18.441Z,98588.80
2024-04-17T18:29:46.804Z,98593.60
2024-04-17T18:32:15.254Z,98590.20
2024-04-17T18:35:02.258Z,98598.00
2024-04-17T18:37:45.791Z,98605.80
2024-04-17T18:40:23.164Z,98627.40
2024-04-17T18:43:01.033Z,98639.40
2024-04-17T18:45:41.997Z,98648.20
2024-04-17T18:48:10.409Z,98645.40
2024-04-17T18:50:39.219Z,98654.20
2024-04-17T18:53:13.201Z,98655.00
2024-04-17T18:55:42.686Z,98657.40
2024-04-17T18:58:13.916Z,98659.80
2024-04-17T19:00:52.140Z,98659.20
2024-04-17T19:03:38.889Z,98664.00
2024-04-17T19:06:07.551Z,98660.20
2024-04-17T19:08:42.845Z,98661.20
2024-04-17T19:11:19.518Z,98664.20
2024-04-17T19:14:12.945Z,98657.80
2024-04-17T19:16:43.449Z,98655.20
2024-04-17T19:19:14.616Z,98658.00
2024-04-17T19:21:59.622Z,98661.00
2024-04-17T19:24:28.761Z,98677.60
2024-04-17T19:27:06.152Z,98672.00
2024-04-17T19:29:53.699Z,98689.60
2024-04-17T19:32:38.694Z,98691.00
2024-04-17T19:35:32.802Z,98686.80
2024-04-17T19:38:06.008Z,98658.00
2024-04-17T19:40:39.674Z,98630.00
2024-04-17T19:43:13.092Z,98626.80
2024-04-17T19:45:51.312Z,98630.20
2024-04-17T19:48:19.744Z,98624.60
2024-04-17T19:51:01.036Z,98638.60
2024-04-17T19:53:29.680Z,98631.00
2024-04-17T19:55:59.347Z,98627.40
2024-04-17T19:58:27.954Z,98632.60
2024-04-17T20:01:04.885Z,98635.60
2024-04-17T20:03:46.229Z,98630.00
2024-04-17T20:06:14.963Z,98634.20
2024-04-17T20:08:52.198Z,98632.40
2024-04-17T20:11:23.739Z,98619.00
2024-04-17T20:13:57.020Z,98613.40
2024-04-17T20:16:34.635Z,98612.40
2024-04-17T20:19:39.540Z,98608.20
2024-04-17T20:22:15.161Z,98602.20
2024-04-17T20:24:51.812Z,98590.20
2024-04-17T20:27:22.264Z,98593.00
2024-04-17T20:30:12.523Z,98590.40
2024-04-17T20:32:49.485Z,98586.60
2024-04-17T20:35:28.557Z,98594.60
2024-04-17T20:38:20.192Z,98607.80
2024-04-17T20:40:58.252Z,98615.80
2024-04-17T20:43:45.737Z,98608.60
2024-04-17T20:46:34.510Z,98613.20
2024-04-17T20:49:05.631Z,98630.20
2024-04-17T20:51:34.114Z,98638.40
2024-04-17T20:54:30.860Z,98629.40
2024-04-17T20:57:02.539Z,98632.00
2024-04-17T20:59:56.491Z,98637.80
2024-04-17T21:02:29.918Z,98646.00
2024-04-17T21:05:01.547Z,98650.80
2024-04-17T21:07:37.926Z,98648.00
2024-04-17T21:10:18.986Z,98657.80
2024-04-17T21:13:07.235Z,98668.60
2024-04-17T21:15:38.755Z,98663.00
2024-04-17T21:18:29.942Z,98662.20
2024-04-17T21:21:12.797Z,98670.60
2024-04-17T21:23:42.412Z,98664.40
2024-04-17T21:26:17.695Z,98661.20
2024-04-17T21:29:05.122Z,98663.00
2024-04-17T21:31:42.401Z,98655.60
2024-04-17T21:34:14.048Z,98649.60
2024-04-17T21:37:06.929Z,98650.00
2024-04-17T21:39:35.224Z,98637.20
2024-04-17T21:42:41.518Z,98634.40
2024-04-17T21:45:21.425Z,98646.20
2024-04-17T21:48:23.261Z,98658.40
2024-04-17T21:50:59.004Z,98663.60
2024-04-17T21:53:33.485Z,98664.80
2024-04-17T21:56:26.224Z,98672.00
2024-04-17T21:58:58.681Z,98671.60
2024-04-17T22:01:31.357Z,98669.20
2024-04-17T22:03:59.652Z,98667.80
2024-04-17T22:06:47.762Z,98662.20
2024-04-17T22:09:36.308Z,98661.60
2024-04-17T22:12:05.123Z,98655.40
2024-04-17T22:14:36.305Z,98659.00
2024-04-17T22:17:05.005Z,98663.60
2024-04-17T22:19:46.912Z,98663.60
2024-04-17T22:22:17.577Z,98668.00
2024-04-17T22:25:10.081Z,98671.20
2024-04-17T22:28:11.519Z,98657.00
2024-04-17T22:30:45.531Z,98645.20
2024-04-17T22:33:50.225Z,98648.60
2024-04-17T22:36:39.198Z,98655.40
2024-04-17T22:39:09.842Z,98647.20
2024-04-17T22:41:44.236Z,98647.20
2024-04-17T22:44:13.235Z,98639.60
2024-04-17T22:46:50.862Z,98648.40
2024-04-17T22:49:35.573Z,98645.40
2024-04-17T22:52:35.146Z,98654.40
2024-04-17T22:55:12.153Z,98663.00
2024-04-17T22:58:06.037Z,98660.40
2024-04-17T23:00:42.232Z,98649.20
2024-04-17T23:03:35.580Z,98641.20
2024-04-17T23:06:10.891Z,98628.40
2024-04-17T23:08:56.975Z,98636.00
2024-04-17T23:12:14.162Z,98642.00
2024-04-17T23:15:33.179Z,98637.80
2024-04-17T23:18:20.349Z,98638.20
2024-04-17T23:20:57.881Z,98636.80
2024-04-17T23:24:19.719Z,98634.60
2024-04-17T23:27:17.733Z,98636.20
2024-04-17T23:29:58.928Z,98625.20
2024-04-17T23:32:41.746Z,98622.40
2024-04-17T23:35:54.166Z,98624.80
2024-04-17T23:39:25.938Z,98623.00
2024-04-17T23:42:00.200Z,98627.80
2024-04-17T23:44:47.966Z,98630.20
2024-04-17T23:47:24.409Z,98640.80
2024-04-17T23:50:32.277Z,98629.00
2024-04-17T23:53:18.077Z,98625.00
2024-04-17T23:56:21.447Z,98620.80
2024-04-17T23:59:41.521Z,98626.80
